South Holland, IL (60473)

5:51 PM CST on February 01, 2015 (GMT -0600)
Brookwood Point | Change Station
CLOSE
Current Station
Personal Weather Station
Location: Glenwood, IL
Elevation: 620 ft
Nearby Weather Stations

Elev 620 ft 41.54 °N, 87.59 °W | Updated 13 seconds ago

Snow
Snow
21.9 °F
Feels Like 22 °F
N
0.0
Wind Variable Wind from NE
Gusts 0.0 mph

Today
High -- | Low -- °F
--% Chance of Precip.
Yesterday
High -- | Low -- °F
Precip. -- in
7:02 AM 5:05 PM
Waxing Gibbous, 96% visible
Pressure 29.71 in
Visibility 1.8 miles
Clouds Overcast 900 ft
Windchill 22 °F
Dew Point 20 °F
Humidity 92%
Rainfall 0.03 in
Snow Depth Not available.
UV 0 out of 12
Pollen .10 out of 12
Air Quality Not available.
Flu Activity Not available.
METAR KIGQ 012335Z AUTO 03012G16KT 1 3/4SM -SN OVC009 M05/M06 A2971 RMK AO2 T10491058

More Conditions Fewer Conditions

Pressure 29.71 in
Visibility 1.8 miles
Clouds Overcast 900 ft
Windchill 22 °F
Dew Point 20 °F
Humidity 92%
Rainfall 0.03 in
Snow Depth Not available.
UV 0 out of 12
Pollen .10 out of 12
Air Quality Not available.
Flu Activity Not available.
METAR KIGQ 012335Z AUTO 03012G16KT 1 3/4SM -SN OVC009 M05/M06 A2971 RMK AO2 T10491058

More Conditions Fewer Conditions

10-Day Weather Forecast

Almanac

Astronomy

Feb. 01, 2015 Rise Set
Actual Time
Civil Twilight
Nautical Twilight
Astronomical Twilight
Moon
Length of Visible Light
Length of Day
Tomorrow will be .
, % of the Moon is Illuminated

Today's Extremes

State Highs State Lows

Community

WunderPhotos

Upload Photos

1,792,612 photos uploaded!

WunderBlogs® & News

Nearby

Air Quality

  Air Quality AQ Index Pollutant
Not available.

Snow Depth

Station Depth Elevation

Earthquake Activity

City Distance Mag. Time & Date
Minimum magnitude displayed is 2.5.

Coastal Water Temperatures

Place Temperature

Nearby Weather Stations